createdAt,value
2022-08-24T00:00:22.345Z,63.00
2022-08-24T00:02:50.703Z,63.20
2022-08-24T00:05:21.065Z,63.10
2022-08-24T00:07:51.655Z,63.20
2022-08-24T00:10:21.170Z,62.90
2022-08-24T00:12:50.004Z,62.80
2022-08-24T00:15:19.619Z,62.90
2022-08-24T00:17:47.553Z,63.00
2022-08-24T00:20:15.611Z,63.20
2022-08-24T00:22:43.742Z,63.30
2022-08-24T00:25:15.086Z,63.50
2022-08-24T00:27:43.412Z,63.80
2022-08-24T00:30:15.787Z,64.00
2022-08-24T00:32:43.912Z,64.10
2022-08-24T00:35:12.995Z,64.20
2022-08-24T00:37:41.819Z,64.30
2022-08-24T00:40:16.812Z,64.60
2022-08-24T00:42:44.971Z,64.60
2022-08-24T00:45:17.143Z,65.40
2022-08-24T00:47:54.969Z,65.00
2022-08-24T00:50:26.678Z,65.10
2022-08-24T00:52:59.010Z,65.00
2022-08-24T00:55:32.880Z,65.10
2022-08-24T00:58:05.191Z,65.10
2022-08-24T01:00:37.743Z,65.00
2022-08-24T01:03:07.357Z,65.10
2022-08-24T01:05:38.095Z,65.20
2022-08-24T01:08:08.930Z,65.50
2022-08-24T01:10:45.441Z,66.00
2022-08-24T01:13:14.511Z,66.20
2022-08-24T01:15:45.750Z,66.30
2022-08-24T01:18:35.127Z,66.00
2022-08-24T01:21:08.396Z,65.60
2022-08-24T01:23:40.862Z,65.80
2022-08-24T01:26:12.564Z,66.20
2022-08-24T01:28:45.075Z,66.90
2022-08-24T01:31:13.594Z,67.30
2022-08-24T01:33:42.108Z,67.40
2022-08-24T01:36:17.594Z,67.30
2022-08-24T01:38:47.618Z,67.80
2022-08-24T01:41:16.573Z,68.00
2022-08-24T01:43:44.465Z,68.00
2022-08-24T01:46:12.463Z,67.90
2022-08-24T01:48:40.431Z,67.90
2022-08-24T01:51:08.279Z,68.10
2022-08-24T01:53:36.798Z,68.60
2022-08-24T01:56:06.868Z,68.60
2022-08-24T01:58:34.726Z,68.50
2022-08-24T02:01:02.754Z,68.40
2022-08-24T02:03:31.090Z,68.50
2022-08-24T02:05:59.494Z,68.50
2022-08-24T02:08:27.577Z,68.60
2022-08-24T02:10:56.988Z,68.60
2022-08-24T02:13:28.825Z,68.60
2022-08-24T02:15:56.797Z,68.80
2022-08-24T02:18:24.901Z,69.00
2022-08-24T02:20:53.214Z,69.00
2022-08-24T02:23:22.229Z,69.00
2022-08-24T02:25:50.925Z,69.10
2022-08-24T02:28:20.195Z,69.00
2022-08-24T02:30:49.839Z,69.20
2022-08-24T02:33:17.970Z,69.30
2022-08-24T02:35:46.040Z,69.30
2022-08-24T02:38:13.954Z,69.20
2022-08-24T02:40:41.846Z,69.40
2022-08-24T02:43:09.762Z,69.30
2022-08-24T02:45:39.930Z,69.40
2022-08-24T02:48:10.091Z,69.40
2022-08-24T02:50:40.466Z,69.30
2022-08-24T02:53:08.526Z,70.00
2022-08-24T02:55:36.769Z,69.50
2022-08-24T02:58:04.678Z,69.50
2022-08-24T03:00:32.747Z,69.50
2022-08-24T03:03:01.731Z,69.60
2022-08-24T03:05:31.334Z,69.70
2022-08-24T03:07:59.218Z,69.70
2022-08-24T03:10:28.663Z,69.80
2022-08-24T03:12:59.044Z,69.80
2022-08-24T03:15:27.227Z,69.90
2022-08-24T03:17:55.151Z,69.90
2022-08-24T03:20:24.311Z,69.90
2022-08-24T03:22:53.969Z,70.00
2022-08-24T03:25:24.627Z,69.90
2022-08-24T03:27:53.068Z,69.90
2022-08-24T03:30:21.832Z,70.00
2022-08-24T03:32:49.830Z,70.10
2022-08-24T03:35:19.230Z,70.10
2022-08-24T03:37:47.734Z,70.10
2022-08-24T03:40:22.422Z,70.10
2022-08-24T03:42:52.861Z,70.20
2022-08-24T03:45:21.457Z,70.70
2022-08-24T03:47:49.428Z,70.30
2022-08-24T03:50:17.319Z,70.20
2022-08-24T03:52:45.265Z,70.30
2022-08-24T03:55:13.673Z,70.30
2022-08-24T03:57:43.004Z,70.30
2022-08-24T04:00:13.517Z,70.30
2022-08-24T04:02:41.464Z,70.20
2022-08-24T04:05:10.696Z,70.30
2022-08-24T04:07:38.743Z,70.30
2022-08-24T04:10:07.740Z,70.40
2022-08-24T04:12:35.678Z,70.60
2022-08-24T04:15:05.706Z,70.60
2022-08-24T04:17:33.914Z,70.80
2022-08-24T04:20:01.933Z,70.80
2022-08-24T04:22:31.179Z,70.80
2022-08-24T04:24:59.258Z,70.80
2022-08-24T04:27:27.191Z,70.80
2022-08-24T04:29:55.197Z,70.70
2022-08-24T04:32:24.435Z,70.70
2022-08-24T04:34:52.302Z,70.70
2022-08-24T04:37:25.593Z,70.60
2022-08-24T04:39:57.235Z,70.70
2022-08-24T04:42:25.708Z,70.80
2022-08-24T04:44:53.761Z,71.00
2022-08-24T04:47:21.622Z,71.10
2022-08-24T04:49:50.867Z,71.20
2022-08-24T04:52:18.984Z,71.40
2022-08-24T04:54:46.916Z,71.50
2022-08-24T04:57:18.179Z,71.60
2022-08-24T04:59:46.544Z,71.60
2022-08-24T05:02:14.514Z,71.80
2022-08-24T05:04:42.429Z,71.90
2022-08-24T05:07:12.326Z,71.90
2022-08-24T05:09:40.261Z,72.00
2022-08-24T05:12:09.017Z,72.10
2022-08-24T05:14:36.853Z,72.20
2022-08-24T05:17:04.962Z,72.10
2022-08-24T05:19:37.160Z,72.50
2022-08-24T05:22:05.353Z,72.80
2022-08-24T05:24:34.632Z,73.10
2022-08-24T05:27:02.556Z,73.30
2022-08-24T05:29:33.620Z,73.40
2022-08-24T05:32:02.226Z,73.30
2022-08-24T05:34:30.930Z,73.30
2022-08-24T05:36:58.869Z,73.40
2022-08-24T05:39:26.777Z,73.20
2022-08-24T05:41:56.020Z,73.30
2022-08-24T05:44:29.129Z,73.50
2022-08-24T05:46:59.160Z,73.90
2022-08-24T05:49:28.063Z,74.10
2022-08-24T05:51:56.287Z,74.20
2022-08-24T05:54:26.794Z,74.40
2022-08-24T05:56:57.285Z,74.50
2022-08-24T05:59:25.320Z,74.60
2022-08-24T06:01:53.436Z,75.10
2022-08-24T06:04:21.470Z,74.70
2022-08-24T06:06:49.957Z,74.90
2022-08-24T06:09:18.183Z,75.00
2022-08-24T06:11:47.476Z,75.00
2022-08-24T06:14:18.477Z,75.00
2022-08-24T06:16:48.526Z,74.90
2022-08-24T06:19:19.251Z,74.90
2022-08-24T06:21:50.029Z,74.80
2022-08-24T06:24:18.507Z,74.60
2022-08-24T06:27:04.978Z,74.40
2022-08-24T06:29:35.608Z,74.20
2022-08-24T06:32:03.963Z,74.10
2022-08-24T06:34:31.962Z,74.60
2022-08-24T06:36:59.897Z,73.90
2022-08-24T06:39:27.827Z,73.90
2022-08-24T06:41:56.401Z,73.90
2022-08-24T06:44:24.357Z,73.90
2022-08-24T06:46:53.861Z,73.90
2022-08-24T06:49:21.841Z,73.90
2022-08-24T06:51:50.905Z,73.60
2022-08-24T06:54:19.176Z,73.70
2022-08-24T06:56:47.184Z,73.90
2022-08-24T06:59:15.038Z,73.80
2022-08-24T07:01:43.011Z,74.10
2022-08-24T07:04:12.347Z,74.40
2022-08-24T07:06:40.217Z,74.70
2022-08-24T07:09:08.214Z,74.40
2022-08-24T07:11:37.040Z,75.40
2022-08-24T07:14:06.840Z,74.60
2022-08-24T07:16:36.009Z,74.40
2022-08-24T07:19:04.956Z,74.60
2022-08-24T07:21:34.321Z,74.80
2022-08-24T07:24:03.327Z,74.70
2022-08-24T07:26:32.693Z,74.00
2022-08-24T07:29:06.160Z,74.60
2022-08-24T07:31:35.569Z,74.10
2022-08-24T07:34:04.592Z,73.70
2022-08-24T07:36:33.991Z,74.10
2022-08-24T07:39:02.652Z,73.30
2022-08-24T07:41:51.283Z,73.50
2022-08-24T07:44:19.530Z,73.40
2022-08-24T07:46:47.507Z,73.10
2022-08-24T07:49:33.048Z,72.80
2022-08-24T07:52:02.775Z,72.60
2022-08-24T07:54:30.767Z,72.20
2022-08-24T07:57:02.227Z,72.50
2022-08-24T07:59:30.125Z,72.90
2022-08-24T08:01:58.822Z,72.70
2022-08-24T08:04:26.885Z,72.60
2022-08-24T08:09:29.759Z,72.80
2022-08-24T08:11:57.711Z,72.00
2022-08-24T08:14:25.607Z,71.70
2022-08-24T08:16:53.807Z,71.60
2022-08-24T08:19:21.821Z,71.50
2022-08-24T08:22:09.589Z,71.30
2022-08-24T08:24:42.533Z,71.20
2022-08-24T08:27:10.918Z,71.80
2022-08-24T08:29:40.546Z,71.10
2022-08-24T08:32:09.329Z,71.00
2022-08-24T08:34:37.214Z,71.80
2022-08-24T08:37:05.508Z,71.40
2022-08-24T08:39:33.695Z,71.00
2022-08-24T08:42:37.187Z,71.40
2022-08-24T08:45:27.529Z,72.10
2022-08-24T08:48:19.148Z,71.20
2022-08-24T08:51:11.246Z,70.90
2022-08-24T08:54:15.161Z,70.50
2022-08-24T08:56:59.230Z,70.50
2022-08-24T08:59:44.001Z,70.90
2022-08-24T09:02:22.489Z,71.00
2022-08-24T09:05:12.006Z,70.50
2022-08-24T09:07:48.400Z,70.00
2022-08-24T09:10:36.718Z,70.30
2022-08-24T09:13:27.776Z,70.30
2022-08-24T09:16:11.110Z,69.40
2022-08-24T09:19:00.879Z,69.00
2022-08-24T09:21:46.236Z,69.00
2022-08-24T09:24:45.194Z,68.50
2022-08-24T09:27:24.894Z,67.90
2022-08-24T09:30:09.034Z,67.70
2022-08-24T09:32:46.685Z,67.10
2022-08-24T09:35:27.179Z,66.80
2022-08-24T09:38:02.022Z,67.60
2022-08-24T09:40:38.629Z,67.10
2022-08-24T09:43:36.865Z,67.30
2022-08-24T09:46:31.437Z,66.50
2022-08-24T09:49:37.878Z,66.40
2022-08-24T09:52:46.220Z,66.70
2022-08-24T09:55:57.101Z,66.20
2022-08-24T09:58:38.828Z,66.70
2022-08-24T10:01:13.182Z,67.40
2022-08-24T10:03:54.714Z,66.40
2022-08-24T10:06:33.544Z,65.00
2022-08-24T10:09:23.695Z,63.90
2022-08-24T10:12:01.085Z,65.30
2022-08-24T10:14:44.196Z,66.70
2022-08-24T10:17:19.848Z,65.50
2022-08-24T10:20:01.221Z,64.30
2022-08-24T10:22:42.006Z,63.80
2022-08-24T10:25:30.445Z,63.50
2022-08-24T10:28:07.873Z,63.00
2022-08-24T10:30:59.010Z,63.70
2022-08-24T10:33:29.539Z,63.10
2022-08-24T10:36:20.945Z,62.70
2022-08-24T10:39:09.006Z,61.80
2022-08-24T10:42:10.612Z,61.70
2022-08-24T10:44:57.305Z,62.90
2022-08-24T10:47:29.065Z,60.90
2022-08-24T10:50:31.057Z,61.00
2022-08-24T10:53:15.444Z,61.40
2022-08-24T10:55:44.219Z,61.30
2022-08-24T10:58:42.310Z,61.50
2022-08-24T11:01:20.895Z,59.90
2022-08-24T11:03:56.425Z,59.60
2022-08-24T11:06:26.043Z,59.20
2022-08-24T11:08:57.373Z,59.20
2022-08-24T11:11:31.958Z,60.60
2022-08-24T11:14:04.326Z,61.90
2022-08-24T11:16:37.626Z,61.40
2022-08-24T11:19:10.781Z,60.80
2022-08-24T11:21:50.846Z,60.50
2022-08-24T11:24:39.246Z,59.60
2022-08-24T11:27:10.254Z,59.90
2022-08-24T11:30:02.041Z,60.50
2022-08-24T11:32:34.008Z,58.20
2022-08-24T11:35:05.394Z,58.10
2022-08-24T11:37:34.929Z,57.80
2022-08-24T11:40:04.700Z,57.50
2022-08-24T11:42:47.147Z,57.90
2022-08-24T11:45:24.790Z,57.60
2022-08-24T11:48:05.296Z,57.70
2022-08-24T11:50:36.581Z,56.50
2022-08-24T11:53:23.620Z,56.10
2022-08-24T11:56:00.706Z,55.40
2022-08-24T11:58:41.574Z,55.70
2022-08-24T12:01:15.648Z,56.20
2022-08-24T12:04:00.640Z,56.30
2022-08-24T12:06:38.774Z,56.20
2022-08-24T12:09:17.402Z,55.50
2022-08-24T12:11:52.920Z,55.20
2022-08-24T12:14:28.927Z,55.50
2022-08-24T12:17:03.489Z,54.70
2022-08-24T12:19:35.791Z,54.20
2022-08-24T12:22:07.408Z,54.10
2022-08-24T12:24:44.322Z,54.10
2022-08-24T12:27:17.960Z,53.40
2022-08-24T12:29:50.937Z,54.20
2022-08-24T12:32:23.085Z,53.10
2022-08-24T12:34:59.064Z,52.70
2022-08-24T12:37:32.440Z,52.70
2022-08-24T12:40:08.687Z,52.20
2022-08-24T12:42:49.857Z,51.70
2022-08-24T12:45:22.382Z,51.40
2022-08-24T12:47:55.904Z,51.60
2022-08-24T12:50:30.623Z,51.30
2022-08-24T12:53:27.634Z,51.20
2022-08-24T12:56:40.314Z,50.90
2022-08-24T12:59:18.638Z,50.30
2022-08-24T13:01:49.578Z,50.40
2022-08-24T13:04:34.118Z,50.30
2022-08-24T13:07:05.949Z,49.50
2022-08-24T13:09:36.937Z,49.90
2022-08-24T13:12:42.048Z,50.00
2022-08-24T13:15:29.189Z,49.40
2022-08-24T13:18:03.056Z,49.90
2022-08-24T13:20:56.392Z,49.60
2022-08-24T13:23:27.279Z,48.80
2022-08-24T13:25:58.893Z,48.70
2022-08-24T13:28:40.340Z,48.50
2022-08-24T13:31:23.074Z,48.20
2022-08-24T13:33:54.071Z,48.40
2022-08-24T13:37:11.686Z,48.70
2022-08-24T13:40:14.910Z,48.70
2022-08-24T13:43:02.526Z,48.50
2022-08-24T13:45:37.662Z,48.10
2022-08-24T13:48:28.301Z,47.90
2022-08-24T13:51:09.881Z,47.40
2022-08-24T13:54:05.734Z,47.30
2022-08-24T13:57:05.491Z,47.60
2022-08-24T13:59:53.525Z,47.50
2022-08-24T14:02:31.905Z,47.10
2022-08-24T14:05:08.921Z,47.30
2022-08-24T14:07:52.207Z,46.90
2022-08-24T14:10:38.754Z,46.30
2022-08-24T14:13:26.323Z,45.90
2022-08-24T14:16:13.792Z,46.10
2022-08-24T14:18:55.943Z,46.40
2022-08-24T14:21:36.244Z,46.30
2022-08-24T14:24:09.078Z,45.90
2022-08-24T14:27:03.759Z,45.90
2022-08-24T14:29:48.811Z,45.90
2022-08-24T14:32:41.623Z,44.90
2022-08-24T14:35:32.209Z,44.50
2022-08-24T14:38:24.008Z,45.00
2022-08-24T14:41:15.240Z,46.00
2022-08-24T14:44:22.201Z,45.20
2022-08-24T14:46:59.391Z,45.30
2022-08-24T14:49:34.831Z,45.20
2022-08-24T14:52:12.130Z,45.10
2022-08-24T14:54:53.245Z,44.50
2022-08-24T14:57:35.833Z,44.10
2022-08-24T15:00:12.234Z,44.40
2022-08-24T15:03:16.907Z,44.50
2022-08-24T15:06:15.953Z,44.40
2022-08-24T15:08:43.743Z,44.70
2022-08-24T15:11:13.673Z,44.50
2022-08-24T15:13:47.863Z,44.50
2022-08-24T15:16:23.828Z,44.40
2022-08-24T15:19:02.848Z,44.40
2022-08-24T15:21:43.980Z,44.60
2022-08-24T15:27:08.168Z,43.60
2022-08-24T15:29:46.524Z,43.70
2022-08-24T15:32:16.232Z,43.50
2022-08-24T15:34:48.607Z,42.60
2022-08-24T15:37:18.098Z,42.70
2022-08-24T15:39:46.170Z,42.80
2022-08-24T15:42:16.621Z,42.50
2022-08-24T15:44:45.793Z,42.30
2022-08-24T15:47:22.624Z,42.00
2022-08-24T15:49:53.980Z,42.10
2022-08-24T15:52:51.350Z,43.10
2022-08-24T15:55:44.101Z,42.80
2022-08-24T15:58:34.158Z,42.50
2022-08-24T16:01:37.769Z,42.00
2022-08-24T16:04:09.483Z,42.80
2022-08-24T16:06:40.886Z,42.90
2022-08-24T16:09:14.698Z,43.30
2022-08-24T16:11:46.557Z,43.20
2022-08-24T16:14:24.476Z,43.30
2022-08-24T16:16:56.285Z,43.40
2022-08-24T16:19:28.404Z,43.30
2022-08-24T16:22:01.036Z,43.20
2022-08-24T16:24:32.549Z,43.30
2022-08-24T16:27:05.125Z,43.30
2022-08-24T16:29:55.612Z,43.10
2022-08-24T16:32:33.067Z,42.70
2022-08-24T16:35:19.814Z,43.00
2022-08-24T16:37:47.831Z,43.60
2022-08-24T16:40:15.964Z,43.60
2022-08-24T16:42:44.212Z,43.50
2022-08-24T16:45:17.265Z,43.20
2022-08-24T16:47:45.657Z,43.10
2022-08-24T16:50:14.430Z,43.50
2022-08-24T16:52:43.709Z,43.40
2022-08-24T16:55:14.645Z,43.40
2022-08-24T16:57:43.222Z,43.60
2022-08-24T17:00:15.653Z,43.60
2022-08-24T17:02:44.065Z,43.90
2022-08-24T17:05:12.614Z,43.60
2022-08-24T17:07:40.578Z,43.80
2022-08-24T17:10:13.369Z,43.60
2022-08-24T17:12:41.260Z,43.90
2022-08-24T17:15:11.574Z,44.50
2022-08-24T17:17:41.477Z,44.60
2022-08-24T17:20:10.959Z,44.30
2022-08-24T17:22:39.623Z,44.70
2022-08-24T17:25:09.128Z,44.80
2022-08-24T17:27:37.024Z,45.20
2022-08-24T17:30:07.027Z,44.90
2022-08-24T17:32:34.906Z,45.20
2022-08-24T17:35:03.445Z,45.50
2022-08-24T17:37:31.663Z,45.50
2022-08-24T17:40:01.888Z,45.80
2022-08-24T17:42:50.098Z,45.80
2022-08-24T17:45:20.286Z,46.10
2022-08-24T17:47:48.306Z,46.30
2022-08-24T17:50:19.683Z,46.50
2022-08-24T17:52:48.352Z,46.80
2022-08-24T17:55:24.099Z,47.00
2022-08-24T17:57:54.681Z,47.30
2022-08-24T18:00:22.798Z,47.50
2022-08-24T18:02:50.745Z,48.10
2022-08-24T18:05:18.777Z,47.70
2022-08-24T18:07:53.982Z,47.70
2022-08-24T18:10:25.122Z,47.80
2022-08-24T18:12:54.736Z,47.70
2022-08-24T18:15:35.448Z,47.90
2022-08-24T18:18:08.326Z,48.00
2022-08-24T18:20:39.137Z,47.90
2022-08-24T18:23:11.349Z,48.10
2022-08-24T18:25:45.775Z,48.10
2022-08-24T18:28:16.097Z,48.30
2022-08-24T18:30:44.695Z,48.40
2022-08-24T18:33:12.601Z,48.50
2022-08-24T18:35:40.488Z,48.60
2022-08-24T18:38:08.536Z,48.60
2022-08-24T18:40:36.739Z,48.80
2022-08-24T18:43:05.512Z,49.30
2022-08-24T18:45:36.086Z,49.10
2022-08-24T18:48:04.439Z,49.20
2022-08-24T18:50:33.356Z,49.40
2022-08-24T18:53:01.385Z,49.60
2022-08-24T18:55:29.308Z,49.60
2022-08-24T18:57:58.055Z,49.50
2022-08-24T19:00:26.253Z,49.60
2022-08-24T19:02:56.582Z,49.60
2022-08-24T19:05:25.620Z,49.70
2022-08-24T19:07:54.868Z,49.70
2022-08-24T19:10:24.743Z,49.80
2022-08-24T19:12:55.895Z,49.80
2022-08-24T19:15:32.063Z,50.00
2022-08-24T19:18:10.865Z,50.20
2022-08-24T19:20:43.399Z,50.30
2022-08-24T19:23:19.507Z,50.50
2022-08-24T19:25:47.550Z,50.60
2022-08-24T19:28:15.486Z,50.80
2022-08-24T19:30:44.524Z,50.90
2022-08-24T19:33:17.015Z,51.40
2022-08-24T19:35:44.897Z,51.50
2022-08-24T19:38:12.766Z,51.70
2022-08-24T19:40:40.746Z,51.90
2022-08-24T19:43:16.660Z,52.10
2022-08-24T19:46:05.738Z,52.10
2022-08-24T19:48:39.532Z,52.10
2022-08-24T19:51:11.611Z,52.20
2022-08-24T19:53:39.960Z,52.40
2022-08-24T19:56:08.774Z,52.40
2022-08-24T19:58:45.427Z,52.40
2022-08-24T20:01:15.753Z,52.40
2022-08-24T20:03:45.020Z,52.30
2022-08-24T20:06:13.399Z,52.20
2022-08-24T20:08:41.865Z,52.30
2022-08-24T20:11:10.428Z,52.30
2022-08-24T20:13:38.731Z,52.40
2022-08-24T20:16:10.616Z,52.40
2022-08-24T20:18:39.472Z,52.60
2022-08-24T20:21:09.327Z,52.70
2022-08-24T20:23:37.444Z,52.90
2022-08-24T20:26:08.343Z,53.30
2022-08-24T20:28:41.335Z,53.50
2022-08-24T20:31:10.243Z,53.60
2022-08-24T20:33:38.191Z,53.70
2022-08-24T20:36:08.962Z,53.60
2022-08-24T20:38:36.973Z,53.70
2022-08-24T20:41:05.082Z,53.80
2022-08-24T20:43:33.045Z,53.80
2022-08-24T20:46:01.732Z,54.00
2022-08-24T20:48:32.455Z,54.20
2022-08-24T20:51:00.646Z,54.50
2022-08-24T20:53:30.179Z,54.50
2022-08-24T20:56:00.071Z,54.20
2022-08-24T20:58:27.971Z,54.70
2022-08-24T21:00:55.897Z,54.40
2022-08-24T21:03:23.848Z,54.60
2022-08-24T21:05:52.466Z,54.90
2022-08-24T21:08:20.838Z,55.40
2022-08-24T21:10:50.022Z,55.60
2022-08-24T21:13:18.102Z,55.90
2022-08-24T21:15:46.388Z,56.10
2022-08-24T21:18:14.602Z,56.40
2022-08-24T21:20:44.624Z,56.70
2022-08-24T21:23:28.605Z,57.00
2022-08-24T21:25:58.540Z,57.40
2022-08-24T21:28:26.449Z,57.40
2022-08-24T21:30:54.355Z,57.60
2022-08-24T21:33:39.905Z,58.10
2022-08-24T21:36:08.910Z,58.40
2022-08-24T21:38:37.074Z,58.60
2022-08-24T21:41:08.430Z,58.60
2022-08-24T21:43:36.251Z,58.80
2022-08-24T21:46:04.240Z,59.00
2022-08-24T21:48:32.375Z,59.20
2022-08-24T21:51:00.215Z,59.50
2022-08-24T21:53:28.665Z,60.00
2022-08-24T21:55:57.238Z,60.30
2022-08-24T21:58:27.098Z,60.80
2022-08-24T22:00:58.993Z,60.90
2022-08-24T22:03:40.151Z,61.40
2022-08-24T22:06:09.000Z,61.50
2022-08-24T22:08:36.972Z,62.10
2022-08-24T22:11:05.217Z,62.50
2022-08-24T22:13:34.832Z,62.90
2022-08-24T22:16:02.995Z,62.90
2022-08-24T22:18:30.965Z,63.10
2022-08-24T22:20:59.189Z,63.10
2022-08-24T22:23:27.138Z,63.30
2022-08-24T22:25:55.393Z,63.80
2022-08-24T22:28:24.229Z,63.40
2022-08-24T22:30:53.437Z,63.70
2022-08-24T22:33:21.315Z,63.50
2022-08-24T22:35:50.376Z,63.80
2022-08-24T22:38:19.324Z,63.90
2022-08-24T22:40:47.817Z,63.90
2022-08-24T22:43:15.677Z,63.90
2022-08-24T22:45:43.567Z,64.00
2022-08-24T22:48:12.789Z,64.00
2022-08-24T22:50:44.222Z,63.90
2022-08-24T22:53:12.228Z,64.20
2022-08-24T22:55:40.143Z,64.30
2022-08-24T22:58:08.014Z,64.40
2022-08-24T23:00:35.925Z,64.50
2022-08-24T23:03:03.977Z,64.10
2022-08-24T23:05:33.571Z,64.20
2022-08-24T23:08:01.778Z,64.40
2022-08-24T23:10:29.737Z,64.80
2022-08-24T23:12:58.876Z,64.80
2022-08-24T23:15:26.785Z,64.80
2022-08-24T23:17:54.755Z,64.90
2022-08-24T23:20:21.666Z,64.90
2022-08-24T23:22:50.893Z,65.10
2022-08-24T23:25:18.734Z,65.30
2022-08-24T23:27:49.450Z,65.70
2022-08-24T23:30:18.149Z,65.90
2022-08-24T23:32:46.212Z,66.30
2022-08-24T23:35:14.120Z,67.10
2022-08-24T23:37:42.138Z,66.70
2022-08-24T23:40:12.694Z,67.10
2022-08-24T23:42:40.599Z,67.30
2022-08-24T23:45:11.932Z,67.60
2022-08-24T23:47:40.718Z,67.80
2022-08-24T23:50:10.859Z,68.30
2022-08-24T23:52:39.980Z,68.50
2022-08-24T23:55:21.093Z,68.60
2022-08-24T23:57:52.252Z,68.70
